createdAt,value
2023-04-24T00:02:02.032Z,77.50
2023-04-24T00:04:29.008Z,78.30
2023-04-24T00:06:58.341Z,78.00
2023-04-24T00:09:25.669Z,78.30
2023-04-24T00:11:53.163Z,78.50
2023-04-24T00:14:20.026Z,78.70
2023-04-24T00:16:47.168Z,78.70
2023-04-24T00:19:14.172Z,79.00
2023-04-24T00:21:42.034Z,79.40
2023-04-24T00:24:11.963Z,79.80
2023-04-24T00:26:38.822Z,80.20
2023-04-24T00:29:05.754Z,80.30
2023-04-24T00:31:35.888Z,80.20
2023-04-24T00:34:03.632Z,80.40
2023-04-24T00:36:33.515Z,80.50
2023-04-24T00:39:00.909Z,80.30
2023-04-24T00:41:28.018Z,80.20
2023-04-24T00:43:56.105Z,80.40
2023-04-24T00:46:23.363Z,80.70
2023-04-24T00:48:51.326Z,81.00
2023-04-24T00:51:18.188Z,81.30
2023-04-24T00:53:45.386Z,81.50
2023-04-24T00:56:12.610Z,81.60
2023-04-24T00:58:39.803Z,81.60
2023-04-24T01:01:08.199Z,81.80
2023-04-24T01:03:38.253Z,82.10
2023-04-24T01:06:06.587Z,82.20
2023-04-24T01:08:35.728Z,82.30
2023-04-24T01:11:05.842Z,82.70
2023-04-24T01:13:33.711Z,83.00
2023-04-24T01:16:01.571Z,83.20
2023-04-24T01:18:29.250Z,83.30
2023-04-24T01:20:59.561Z,83.70
2023-04-24T01:23:27.810Z,83.70
2023-04-24T01:25:54.968Z,83.90
2023-04-24T01:28:22.642Z,83.70
2023-04-24T01:30:49.937Z,83.70
2023-04-24T01:33:21.807Z,83.70
2023-04-24T01:35:49.959Z,83.30
2023-04-24T01:38:16.839Z,82.80
2023-04-24T01:40:43.661Z,83.20
2023-04-24T01:43:10.605Z,82.90
2023-04-24T01:45:37.528Z,83.00
2023-04-24T01:48:05.167Z,83.20
2023-04-24T01:50:32.333Z,83.20
2023-04-24T01:52:59.275Z,83.30
2023-04-24T01:55:26.320Z,83.40
2023-04-24T01:57:55.541Z,83.50
2023-04-24T02:00:24.878Z,84.40
2023-04-24T02:02:53.815Z,83.90
2023-04-24T02:05:20.867Z,83.80
2023-04-24T02:07:48.683Z,84.00
2023-04-24T02:10:15.618Z,85.10
2023-04-24T02:12:43.251Z,85.40
2023-04-24T02:15:10.747Z,86.00
2023-04-24T02:17:38.396Z,86.80
2023-04-24T02:20:07.612Z,87.30
2023-04-24T02:22:34.534Z,88.70
2023-04-24T02:25:02.839Z,89.70
2023-04-24T02:27:29.690Z,90.00
2023-04-24T02:29:57.625Z,90.30
2023-04-24T02:32:24.587Z,90.60
2023-04-24T02:34:51.407Z,90.90
2023-04-24T02:37:18.285Z,91.00
2023-04-24T02:39:45.195Z,91.40
2023-04-24T02:42:12.248Z,91.50
2023-04-24T02:44:39.075Z,91.50
2023-04-24T02:47:05.873Z,91.50
2023-04-24T02:49:32.782Z,91.80
2023-04-24T02:51:59.674Z,92.10
2023-04-24T02:54:26.839Z,92.40
2023-04-24T02:56:53.734Z,92.40
2023-04-24T02:59:20.626Z,92.70
2023-04-24T03:01:47.562Z,92.60
2023-04-24T03:04:14.859Z,93.00
2023-04-24T03:06:41.903Z,93.00
2023-04-24T03:09:08.784Z,93.40
2023-04-24T03:11:37.592Z,93.50
2023-04-24T03:14:04.460Z,93.60
2023-04-24T03:16:31.596Z,93.70
2023-04-24T03:18:59.964Z,93.60
2023-04-24T03:21:30.576Z,93.50
2023-04-24T03:23:57.569Z,93.50
2023-04-24T03:26:24.528Z,93.70
2023-04-24T03:29:04.157Z,93.60
2023-04-24T03:31:31.150Z,93.40
2023-04-24T03:33:58.343Z,93.50
2023-04-24T03:36:27.088Z,93.60
2023-04-24T03:38:54.954Z,93.90
2023-04-24T03:41:31.291Z,93.90
2023-04-24T03:44:14.628Z,94.50
2023-04-24T03:46:42.377Z,93.80
2023-04-24T03:49:09.969Z,93.80
2023-04-24T03:51:42.820Z,93.70
2023-04-24T03:54:17.526Z,93.80
2023-04-24T03:56:45.950Z,94.20
2023-04-24T03:59:14.410Z,94.30
2023-04-24T04:01:44.642Z,94.20
2023-04-24T04:04:15.666Z,94.30
2023-04-24T04:06:45.117Z,94.50
2023-04-24T04:09:12.235Z,94.70
2023-04-24T04:11:41.049Z,94.50
2023-04-24T04:14:07.957Z,95.00
2023-04-24T04:16:37.650Z,94.70
2023-04-24T04:19:06.524Z,94.60
2023-04-24T04:21:33.508Z,94.80
2023-04-24T04:24:18.882Z,94.90
2023-04-24T04:26:48.112Z,95.00
2023-04-24T04:29:28.410Z,95.20
2023-04-24T04:31:56.343Z,95.40
2023-04-24T04:34:24.221Z,95.80
2023-04-24T04:36:52.712Z,96.20
2023-04-24T04:39:55.083Z,95.90
2023-04-24T04:42:26.326Z,95.90
2023-04-24T04:44:53.506Z,96.30
2023-04-24T04:47:27.587Z,96.30
2023-04-24T04:49:56.573Z,96.50
2023-04-24T04:52:27.653Z,97.40
2023-04-24T04:55:15.828Z,97.40
2023-04-24T04:58:18.033Z,97.60
2023-04-24T05:00:47.281Z,97.50
2023-04-24T05:03:21.991Z,97.30
2023-04-24T05:05:56.086Z,97.20
2023-04-24T05:08:27.540Z,97.30
2023-04-24T05:10:56.366Z,98.30
2023-04-24T05:15:58.162Z,98.70
2023-04-24T05:18:25.039Z,99.00
2023-04-24T05:20:52.103Z,98.90
2023-04-24T05:23:21.940Z,98.90
2023-04-24T05:25:52.668Z,98.20
2023-04-24T05:28:21.950Z,97.90
2023-04-24T05:31:00.735Z,97.40
2023-04-24T05:33:27.787Z,97.30
2023-04-24T05:35:55.039Z,96.90
2023-04-24T05:38:22.147Z,96.60
2023-04-24T05:40:49.187Z,96.30
2023-04-24T05:43:16.050Z,94.90
2023-04-24T05:45:43.099Z,93.90
2023-04-24T05:48:10.040Z,94.10
2023-04-24T05:50:37.355Z,93.60
2023-04-24T05:53:05.135Z,93.80
2023-04-24T05:55:35.136Z,93.90
2023-04-24T05:58:02.195Z,94.60
2023-04-24T06:00:30.335Z,94.50
2023-04-24T06:03:05.472Z,94.80
2023-04-24T06:05:33.152Z,94.30
2023-04-24T06:08:00.070Z,94.10
2023-04-24T06:10:32.550Z,94.10
2023-04-24T06:13:01.580Z,94.30
2023-04-24T06:15:35.148Z,94.60
2023-04-24T06:18:13.794Z,94.40
2023-04-24T06:20:42.033Z,94.60
2023-04-24T06:23:12.965Z,94.50
2023-04-24T06:25:40.177Z,94.40
2023-04-24T06:28:07.020Z,93.50
2023-04-24T06:30:33.886Z,94.00
2023-04-24T06:33:12.978Z,94.30
2023-04-24T06:35:46.873Z,94.50
2023-04-24T06:38:13.704Z,94.80
2023-04-24T06:40:40.614Z,94.50
2023-04-24T06:43:07.640Z,94.30
2023-04-24T06:45:35.051Z,93.80
2023-04-24T06:48:02.065Z,94.50
2023-04-24T06:50:29.213Z,94.10
2023-04-24T06:52:56.044Z,94.50
2023-04-24T06:55:22.995Z,94.40
2023-04-24T06:57:49.900Z,94.30
2023-04-24T07:00:17.079Z,95.20
2023-04-24T07:02:44.058Z,95.10
2023-04-24T07:05:11.110Z,94.50
2023-04-24T07:07:38.950Z,94.30
2023-04-24T07:10:06.814Z,94.80
2023-04-24T07:12:34.035Z,94.20
2023-04-24T07:15:01.683Z,94.70
2023-04-24T07:17:28.631Z,94.70
2023-04-24T07:19:55.568Z,94.10
2023-04-24T07:22:22.556Z,93.80
2023-04-24T07:24:49.424Z,93.50
2023-04-24T07:27:16.449Z,93.80
2023-04-24T07:29:44.324Z,93.70
2023-04-24T07:32:11.576Z,93.50
2023-04-24T07:34:38.415Z,93.80
2023-04-24T07:37:05.789Z,93.90
2023-04-24T07:39:32.795Z,93.50
2023-04-24T07:42:00.374Z,93.70
2023-04-24T07:44:27.471Z,93.50
2023-04-24T07:46:54.691Z,93.70
2023-04-24T07:49:21.611Z,93.50
2023-04-24T07:51:50.377Z,93.70
2023-04-24T07:54:17.679Z,93.50
2023-04-24T07:56:45.156Z,93.10
2023-04-24T07:59:12.247Z,93.30
2023-04-24T08:01:39.504Z,93.90
2023-04-24T08:04:07.005Z,94.20
2023-04-24T08:06:34.241Z,94.40
2023-04-24T08:09:01.469Z,93.90
2023-04-24T08:11:28.536Z,94.20
2023-04-24T08:13:58.250Z,93.80
2023-04-24T08:16:25.345Z,93.80
2023-04-24T08:18:52.619Z,93.80
2023-04-24T08:21:22.565Z,93.90
2023-04-24T08:23:49.490Z,93.80
2023-04-24T08:26:16.383Z,93.60
2023-04-24T08:28:45.651Z,93.20
2023-04-24T08:31:12.691Z,92.50
2023-04-24T08:33:39.505Z,91.30
2023-04-24T08:36:07.224Z,91.80
2023-04-24T08:38:34.812Z,90.00
2023-04-24T08:41:02.791Z,86.50
2023-04-24T08:43:29.860Z,87.60
2023-04-24T08:45:58.031Z,87.30
2023-04-24T08:48:30.790Z,86.20
2023-04-24T08:51:02.949Z,86.30
2023-04-24T08:53:30.769Z,85.40
2023-04-24T08:55:57.835Z,85.90
2023-04-24T08:58:27.620Z,85.60
2023-04-24T09:00:58.989Z,86.40
2023-04-24T09:03:28.691Z,86.20
2023-04-24T09:05:58.223Z,81.60
2023-04-24T09:08:27.173Z,82.30
2023-04-24T09:10:54.342Z,84.50
2023-04-24T09:13:21.592Z,83.70
2023-04-24T09:15:48.835Z,82.40
2023-04-24T09:18:16.012Z,80.60
2023-04-24T09:21:06.002Z,81.60
2023-04-24T09:23:33.599Z,81.00
2023-04-24T09:26:02.733Z,82.30
2023-04-24T09:28:39.401Z,82.70
2023-04-24T09:31:09.789Z,80.80
2023-04-24T09:33:37.287Z,80.80
2023-04-24T09:36:04.340Z,80.80
2023-04-24T09:38:38.848Z,81.40
2023-04-24T09:41:08.100Z,78.80
2023-04-24T09:43:36.434Z,79.50
2023-04-24T09:46:10.602Z,82.20
2023-04-24T09:48:38.584Z,80.50
2023-04-24T09:51:16.741Z,79.50
2023-04-24T09:53:49.804Z,82.80
2023-04-24T09:56:26.310Z,82.70
2023-04-24T09:58:53.182Z,83.10
2023-04-24T10:01:33.262Z,81.00
2023-04-24T10:04:00.626Z,81.20
2023-04-24T10:06:37.345Z,81.60
2023-04-24T10:09:04.783Z,81.40
2023-04-24T10:11:31.986Z,81.20
2023-04-24T10:13:59.464Z,79.60
2023-04-24T10:16:28.548Z,77.20
2023-04-24T10:18:56.210Z,80.50
2023-04-24T10:21:24.031Z,80.80
2023-04-24T10:23:51.883Z,77.80
2023-04-24T10:26:20.394Z,78.00
2023-04-24T10:28:48.661Z,77.00
2023-04-24T10:31:16.280Z,77.40
2023-04-24T10:33:44.617Z,76.50
2023-04-24T10:36:12.466Z,76.30
2023-04-24T10:38:42.796Z,76.60
2023-04-24T10:41:20.541Z,76.10
2023-04-24T10:43:49.608Z,78.80
2023-04-24T10:46:22.874Z,79.60
2023-04-24T10:48:57.403Z,79.00
2023-04-24T10:51:25.095Z,80.00
2023-04-24T10:53:52.758Z,80.20
2023-04-24T10:56:19.692Z,79.70
2023-04-24T10:58:53.280Z,77.00
2023-04-24T11:01:33.887Z,74.60
2023-04-24T11:04:05.982Z,74.20
2023-04-24T11:06:37.918Z,76.80
2023-04-24T11:09:09.843Z,75.50
2023-04-24T11:11:41.274Z,73.20
2023-04-24T11:14:09.498Z,73.90
2023-04-24T11:16:57.012Z,71.90
2023-04-24T11:19:29.465Z,73.50
2023-04-24T11:22:01.401Z,71.90
2023-04-24T11:24:38.897Z,71.50
2023-04-24T11:27:17.975Z,70.60
2023-04-24T11:29:45.968Z,70.30
2023-04-24T11:32:27.958Z,70.80
2023-04-24T11:35:26.121Z,72.00
2023-04-24T11:40:26.495Z,72.50
2023-04-24T11:42:56.627Z,72.50
2023-04-24T11:45:27.104Z,74.40
2023-04-24T11:47:54.428Z,72.70
2023-04-24T11:50:24.221Z,71.90
2023-04-24T11:52:51.921Z,73.10
2023-04-24T11:55:19.767Z,70.70
2023-04-24T11:57:52.372Z,72.70
2023-04-24T12:00:21.703Z,70.60
2023-04-24T12:02:50.439Z,70.20
2023-04-24T12:05:28.825Z,71.00
2023-04-24T12:07:55.996Z,68.90
2023-04-24T12:10:28.380Z,70.90
2023-04-24T12:12:57.336Z,71.00
2023-04-24T12:15:24.306Z,70.00
2023-04-24T12:17:55.657Z,71.40
2023-04-24T12:20:31.251Z,67.90
2023-04-24T12:22:59.986Z,68.40
2023-04-24T12:25:32.101Z,69.60
2023-04-24T12:28:07.268Z,68.30
2023-04-24T12:30:55.531Z,67.00
2023-04-24T12:33:23.010Z,72.50
2023-04-24T12:35:54.414Z,63.50
2023-04-24T12:38:26.429Z,67.40
2023-04-24T12:41:07.794Z,61.80
2023-04-24T12:43:35.297Z,63.50
2023-04-24T12:46:05.328Z,64.20
2023-04-24T12:48:32.500Z,63.90
2023-04-24T12:51:02.386Z,64.00
2023-04-24T12:53:30.880Z,63.50
2023-04-24T12:55:58.277Z,62.80
2023-04-24T12:58:25.668Z,69.20
2023-04-24T13:00:52.707Z,66.10
2023-04-24T13:03:20.046Z,65.90
2023-04-24T13:05:47.302Z,67.00
2023-04-24T13:08:14.257Z,68.80
2023-04-24T13:10:41.825Z,63.50
2023-04-24T13:13:09.700Z,66.60
2023-04-24T13:15:36.691Z,69.30
2023-04-24T13:18:06.491Z,64.90
2023-04-24T13:20:33.717Z,64.70
2023-04-24T13:23:01.005Z,64.10
2023-04-24T13:25:28.643Z,64.00
2023-04-24T13:27:56.130Z,65.00
2023-04-24T13:30:23.036Z,63.60
2023-04-24T13:32:49.973Z,63.30
2023-04-24T13:35:16.898Z,63.10
2023-04-24T13:37:43.919Z,63.90
2023-04-24T13:40:14.235Z,62.00
2023-04-24T13:42:41.457Z,61.20
2023-04-24T13:45:17.786Z,62.00
2023-04-24T13:47:52.574Z,62.20
2023-04-24T13:50:19.946Z,59.90
2023-04-24T13:52:46.888Z,62.70
2023-04-24T13:55:13.938Z,59.60
2023-04-24T13:57:41.294Z,59.20
2023-04-24T14:00:11.605Z,57.10
2023-04-24T14:02:39.027Z,59.00
2023-04-24T14:05:07.597Z,61.30
2023-04-24T14:07:34.594Z,63.70
2023-04-24T14:10:01.602Z,63.90
2023-04-24T14:12:28.796Z,66.00
2023-04-24T14:14:55.732Z,64.50
2023-04-24T14:17:22.614Z,64.80
2023-04-24T14:19:49.582Z,65.90
2023-04-24T14:22:16.464Z,63.70
2023-04-24T14:24:43.295Z,66.60
2023-04-24T14:27:10.124Z,66.60
2023-04-24T14:29:39.826Z,63.60
2023-04-24T14:32:07.234Z,68.00
2023-04-24T14:34:34.033Z,63.90
2023-04-24T14:37:00.902Z,63.40
2023-04-24T14:39:27.761Z,62.90
2023-04-24T14:41:54.721Z,61.90
2023-04-24T14:44:21.565Z,64.80
2023-04-24T14:46:50.049Z,62.20
2023-04-24T14:49:16.935Z,64.80
2023-04-24T14:51:44.497Z,65.10
2023-04-24T14:54:11.651Z,62.90
2023-04-24T14:56:40.527Z,65.00
2023-04-24T14:59:08.404Z,64.30
2023-04-24T15:01:35.344Z,65.60
2023-04-24T15:04:02.440Z,64.60
2023-04-24T15:06:32.626Z,63.10
2023-04-24T15:08:59.879Z,62.40
2023-04-24T15:11:27.130Z,62.70
2023-04-24T15:13:54.092Z,65.10
2023-04-24T15:16:21.583Z,66.70
2023-04-24T15:18:48.509Z,68.80
2023-04-24T15:21:15.533Z,69.50
2023-04-24T15:23:42.473Z,70.90
2023-04-24T15:26:09.388Z,71.20
2023-04-24T15:28:36.277Z,72.00
2023-04-24T15:31:03.324Z,71.60
2023-04-24T15:33:30.198Z,72.10
2023-04-24T15:35:57.403Z,71.80
2023-04-24T15:38:26.813Z,70.90
2023-04-24T15:40:53.657Z,69.70
2023-04-24T15:43:20.640Z,71.20
2023-04-24T15:45:47.635Z,70.10
2023-04-24T15:48:14.564Z,70.90
2023-04-24T15:50:41.615Z,71.00
2023-04-24T15:53:08.505Z,72.40
2023-04-24T15:55:35.778Z,72.90
2023-04-24T15:58:02.842Z,72.50
2023-04-24T16:00:34.215Z,71.70
2023-04-24T16:03:02.266Z,69.30
2023-04-24T16:05:29.550Z,68.80
2023-04-24T16:07:57.055Z,70.20
2023-04-24T16:10:24.001Z,72.40
2023-04-24T16:12:53.314Z,71.70
2023-04-24T16:15:21.343Z,72.40
2023-04-24T16:17:49.680Z,71.50
2023-04-24T16:20:16.927Z,72.20
2023-04-24T16:22:43.838Z,72.70
2023-04-24T16:25:10.848Z,72.40
2023-04-24T16:27:40.737Z,72.40
2023-04-24T16:30:08.361Z,72.40
2023-04-24T16:32:35.277Z,72.40
2023-04-24T16:35:02.866Z,72.90
2023-04-24T16:37:30.499Z,77.10
2023-04-24T16:39:57.356Z,78.30
2023-04-24T16:42:24.182Z,79.00
2023-04-24T16:44:51.066Z,79.70
2023-04-24T16:47:18.757Z,80.10
2023-04-24T16:49:45.691Z,80.00
2023-04-24T16:52:12.592Z,80.20
2023-04-24T16:54:39.447Z,80.70
2023-04-24T16:57:07.963Z,80.50
2023-04-24T16:59:35.027Z,79.90
2023-04-24T17:02:02.171Z,80.40
2023-04-24T17:04:29.274Z,82.70
2023-04-24T17:06:56.322Z,84.50
2023-04-24T17:09:23.393Z,85.60
2023-04-24T17:11:50.270Z,86.30
2023-04-24T17:14:17.132Z,86.00
2023-04-24T17:16:46.031Z,87.20
2023-04-24T17:19:13.026Z,86.60
2023-04-24T17:21:40.024Z,87.00
2023-04-24T17:24:07.060Z,87.30
2023-04-24T17:26:34.238Z,86.50
2023-04-24T17:29:01.168Z,86.60
2023-04-24T17:31:28.036Z,86.70
2023-04-24T17:33:54.849Z,86.90
2023-04-24T17:36:21.737Z,85.60
2023-04-24T17:38:48.798Z,85.60
2023-04-24T17:41:16.783Z,85.20
2023-04-24T17:43:45.730Z,85.50
2023-04-24T17:46:12.962Z,85.90
2023-04-24T17:48:40.138Z,86.30
2023-04-24T17:51:07.010Z,85.40
2023-04-24T17:53:33.798Z,86.40
2023-04-24T17:56:03.409Z,86.20
2023-04-24T17:58:31.324Z,85.50
2023-04-24T18:00:58.356Z,86.30
2023-04-24T18:03:25.496Z,86.10
2023-04-24T18:05:52.571Z,85.50
2023-04-24T18:08:19.568Z,84.70
2023-04-24T18:10:46.812Z,84.80
2023-04-24T18:13:13.907Z,85.10
2023-04-24T18:15:43.178Z,85.60
2023-04-24T18:18:11.175Z,85.30
2023-04-24T18:20:38.329Z,84.90
2023-04-24T18:23:05.646Z,84.30
2023-04-24T18:25:32.716Z,84.30
2023-04-24T18:27:59.588Z,84.80
2023-04-24T18:30:27.002Z,87.50
2023-04-24T18:32:54.224Z,86.40
2023-04-24T18:35:21.532Z,86.50
2023-04-24T18:37:48.867Z,86.80
2023-04-24T18:40:18.875Z,87.10
2023-04-24T18:42:46.047Z,85.10
2023-04-24T18:45:14.956Z,85.80
2023-04-24T18:47:42.854Z,87.00
2023-04-24T18:50:10.513Z,85.70
2023-04-24T18:52:37.516Z,84.80
2023-04-24T18:55:05.439Z,85.30
2023-04-24T18:57:32.901Z,84.60
2023-04-24T18:59:59.784Z,85.30
2023-04-24T19:02:26.809Z,85.40
2023-04-24T19:04:53.830Z,83.30
2023-04-24T19:07:21.364Z,84.30
2023-04-24T19:09:48.305Z,82.30
2023-04-24T19:12:15.331Z,81.30
2023-04-24T19:14:42.262Z,80.70
2023-04-24T19:17:10.501Z,80.40
2023-04-24T19:19:37.373Z,79.80
2023-04-24T19:22:04.447Z,79.90
2023-04-24T19:24:33.607Z,80.90
2023-04-24T19:27:01.579Z,79.90
2023-04-24T19:29:28.701Z,81.10
2023-04-24T19:31:57.976Z,81.50
2023-04-24T19:34:26.190Z,80.90
2023-04-24T19:36:53.262Z,81.70
2023-04-24T19:39:20.281Z,78.90
2023-04-24T19:41:47.308Z,75.90
2023-04-24T19:44:15.693Z,76.10
2023-04-24T19:46:43.183Z,75.90
2023-04-24T19:49:10.293Z,77.10
2023-04-24T19:51:39.656Z,77.10
2023-04-24T19:54:07.035Z,75.90
2023-04-24T19:56:34.101Z,76.00
2023-04-24T19:59:03.955Z,76.50
2023-04-24T20:01:32.410Z,75.70
2023-04-24T20:03:59.528Z,76.50
2023-04-24T20:06:26.646Z,77.40
2023-04-24T20:08:53.570Z,76.10
2023-04-24T20:11:20.474Z,77.50
2023-04-24T20:13:47.324Z,77.20
2023-04-24T20:16:14.405Z,76.90
2023-04-24T20:18:41.714Z,78.40
2023-04-24T20:21:11.896Z,76.80
2023-04-24T20:23:38.815Z,77.60
2023-04-24T20:26:08.325Z,77.60
2023-04-24T20:28:35.679Z,78.20
2023-04-24T20:31:03.372Z,79.20
2023-04-24T20:33:33.473Z,76.90
2023-04-24T20:36:00.436Z,79.80
2023-04-24T20:38:29.693Z,75.30
2023-04-24T20:40:58.113Z,75.90
2023-04-24T20:43:29.084Z,76.20
2023-04-24T20:45:58.122Z,75.10
2023-04-24T20:48:26.268Z,77.00
2023-04-24T20:50:55.942Z,77.40
2023-04-24T20:53:22.954Z,79.90
2023-04-24T20:55:50.027Z,85.00
2023-04-24T20:58:21.004Z,78.30
2023-04-24T21:00:49.097Z,75.10
2023-04-24T21:03:16.408Z,73.60
2023-04-24T21:05:43.486Z,74.70
2023-04-24T21:08:10.557Z,73.80
2023-04-24T21:10:37.484Z,75.10
2023-04-24T21:13:04.431Z,75.00
2023-04-24T21:15:31.356Z,76.20
2023-04-24T21:17:58.293Z,77.70
2023-04-24T21:20:26.555Z,79.30
2023-04-24T21:22:53.464Z,83.90
2023-04-24T21:25:20.326Z,84.10
2023-04-24T21:27:47.350Z,79.50
2023-04-24T21:30:14.522Z,79.50
2023-04-24T21:32:41.483Z,79.30
2023-04-24T21:35:08.796Z,80.30
2023-04-24T21:37:37.881Z,80.20
2023-04-24T21:40:05.550Z,81.00
2023-04-24T21:42:32.510Z,81.60
2023-04-24T21:44:59.398Z,82.10
2023-04-24T21:47:26.398Z,81.50
2023-04-24T21:49:55.714Z,81.70
2023-04-24T21:52:22.585Z,81.40
2023-04-24T21:54:49.552Z,81.20
2023-04-24T21:57:16.601Z,80.40
2023-04-24T21:59:43.669Z,80.40
2023-04-24T22:02:10.743Z,80.80
2023-04-24T22:04:37.965Z,80.70
2023-04-24T22:07:05.322Z,80.60
2023-04-24T22:09:32.194Z,80.70
2023-04-24T22:11:59.231Z,81.30
2023-04-24T22:14:27.148Z,81.80
2023-04-24T22:16:57.059Z,82.50
2023-04-24T22:19:26.237Z,82.80
2023-04-24T22:21:53.276Z,82.60
2023-04-24T22:24:20.379Z,83.10
2023-04-24T22:26:47.303Z,83.40
2023-04-24T22:29:14.204Z,84.10
2023-04-24T22:31:41.692Z,85.00
2023-04-24T22:34:09.082Z,85.80
2023-04-24T22:36:35.965Z,86.50
2023-04-24T22:39:04.252Z,86.90
2023-04-24T22:41:31.693Z,87.40
2023-04-24T22:43:58.622Z,87.60
2023-04-24T22:46:25.805Z,87.70
2023-04-24T22:48:52.691Z,88.00
2023-04-24T22:51:19.565Z,88.40
2023-04-24T22:53:46.748Z,88.60
2023-04-24T22:56:14.915Z,88.50
2023-04-24T22:58:41.800Z,88.40
2023-04-24T23:01:08.707Z,87.60
2023-04-24T23:03:35.933Z,87.30
2023-04-24T23:06:03.076Z,87.00
2023-04-24T23:08:30.947Z,87.00
2023-04-24T23:10:57.917Z,86.80
2023-04-24T23:13:25.944Z,86.10
2023-04-24T23:15:54.722Z,86.30
2023-04-24T23:18:22.035Z,86.10
2023-04-24T23:20:48.966Z,85.90
2023-04-24T23:23:16.689Z,85.80
2023-04-24T23:25:43.635Z,85.80
2023-04-24T23:28:10.454Z,85.60
2023-04-24T23:30:37.326Z,85.40
2023-04-24T23:33:04.988Z,85.00
2023-04-24T23:35:32.267Z,84.90
2023-04-24T23:37:59.169Z,84.60
2023-04-24T23:40:26.097Z,84.40
2023-04-24T23:43:05.722Z,84.40
2023-04-24T23:45:34.547Z,84.90
2023-04-24T23:48:01.795Z,84.40
2023-04-24T23:50:28.740Z,84.50
2023-04-24T23:52:55.697Z,84.50
2023-04-24T23:55:22.622Z,84.90
2023-04-24T23:57:49.458Z,85.40
